createdAt,value
2023-04-20T00:00:25.043Z,8.67
2023-04-20T00:02:51.735Z,8.20
2023-04-20T00:05:18.387Z,8.70
2023-04-20T00:07:44.985Z,9.03
2023-04-20T00:10:11.619Z,8.63
2023-04-20T00:12:38.189Z,8.50
2023-04-20T00:15:04.999Z,8.80
2023-04-20T00:17:31.777Z,8.03
2023-04-20T00:19:58.380Z,8.70
2023-04-20T00:22:26.280Z,8.73
2023-04-20T00:24:52.828Z,8.23
2023-04-20T00:27:19.420Z,8.27
2023-04-20T00:29:46.054Z,7.67
2023-04-20T00:32:12.631Z,8.30
2023-04-20T00:34:40.445Z,8.50
2023-04-20T00:37:07.023Z,8.13
2023-04-20T00:39:33.574Z,8.33
2023-04-20T00:42:06.639Z,8.33
2023-04-20T00:44:33.516Z,8.47
2023-04-20T00:47:00.799Z,8.23
2023-04-20T00:49:30.889Z,8.20
2023-04-20T00:52:00.550Z,8.23
2023-04-20T00:54:28.337Z,8.37
2023-04-20T00:56:56.547Z,8.73
2023-04-20T00:59:23.120Z,8.43
2023-04-20T01:01:49.915Z,9.40
2023-04-20T01:04:17.301Z,11.70
2023-04-20T01:06:43.924Z,11.77
2023-04-20T01:09:10.511Z,11.50
2023-04-20T01:11:37.052Z,11.57
2023-04-20T01:14:03.666Z,11.50
2023-04-20T01:16:31.998Z,11.20
2023-04-20T01:18:58.701Z,11.70
2023-04-20T01:21:25.613Z,11.10
2023-04-20T01:23:52.357Z,10.73
2023-04-20T01:26:19.612Z,11.17
2023-04-20T01:28:49.733Z,10.40
2023-04-20T01:31:16.543Z,11.00
2023-04-20T01:33:43.249Z,11.10
2023-04-20T01:36:10.447Z,11.40
2023-04-20T01:38:37.475Z,10.87
2023-04-20T01:41:05.750Z,11.27
2023-04-20T01:43:32.658Z,10.53
2023-04-20T01:45:59.787Z,11.40
2023-04-20T01:48:26.736Z,10.63
2023-04-20T01:50:53.478Z,10.23
2023-04-20T01:53:20.271Z,11.97
2023-04-20T01:55:47.650Z,11.73
2023-04-20T01:58:14.328Z,11.93
2023-04-20T02:00:41.037Z,11.90
2023-04-20T02:03:07.855Z,11.20
2023-04-20T02:05:34.609Z,11.43
2023-04-20T02:08:01.118Z,11.60
2023-04-20T02:10:27.687Z,12.47
2023-04-20T02:12:54.261Z,12.85
2023-04-20T02:15:20.934Z,12.53
2023-04-20T02:17:52.222Z,12.93
2023-04-20T02:20:22.200Z,12.80
2023-04-20T02:22:48.974Z,13.23
2023-04-20T02:25:15.681Z,12.57
2023-04-20T02:27:43.092Z,13.33
2023-04-20T02:30:12.516Z,13.43
2023-04-20T02:32:42.456Z,13.43
2023-04-20T02:35:09.217Z,13.03
2023-04-20T02:37:35.783Z,13.40
2023-04-20T02:40:05.017Z,13.87
2023-04-20T02:42:31.653Z,13.97
2023-04-20T02:44:59.983Z,14.23
2023-04-20T02:47:26.642Z,14.93
2023-04-20T02:49:54.341Z,13.43
2023-04-20T02:52:20.921Z,13.83
2023-04-20T02:54:47.767Z,14.27
2023-04-20T02:57:14.463Z,14.00
2023-04-20T02:59:41.547Z,14.10
2023-04-20T03:02:28.495Z,14.13
2023-04-20T03:04:55.881Z,13.70
2023-04-20T03:07:22.645Z,13.90
2023-04-20T03:09:49.496Z,14.63
2023-04-20T03:12:22.984Z,14.23
2023-04-20T03:15:10.220Z,15.43
2023-04-20T03:17:47.160Z,15.50
2023-04-20T03:20:14.862Z,15.70
2023-04-20T03:22:41.499Z,15.13
2023-04-20T03:25:09.178Z,15.07
2023-04-20T03:27:55.959Z,15.53
2023-04-20T03:30:22.592Z,15.23
2023-04-20T03:32:54.999Z,16.10
2023-04-20T03:35:21.592Z,15.63
2023-04-20T03:37:48.255Z,15.27
2023-04-20T03:40:14.981Z,14.60
2023-04-20T03:42:41.765Z,14.50
2023-04-20T03:45:08.546Z,14.10
2023-04-20T03:47:35.163Z,14.23
2023-04-20T03:50:01.886Z,14.00
2023-04-20T03:52:28.756Z,14.47
2023-04-20T03:54:56.087Z,13.60
2023-04-20T03:57:22.692Z,12.70
2023-04-20T03:59:49.385Z,13.37
2023-04-20T04:02:22.601Z,13.10
2023-04-20T04:04:50.922Z,14.33
2023-04-20T04:07:17.606Z,13.60
2023-04-20T04:09:44.259Z,13.27
2023-04-20T04:12:12.343Z,13.67
2023-04-20T04:14:39.567Z,13.03
2023-04-20T04:17:08.188Z,13.90
2023-04-20T04:19:37.745Z,14.30
2023-04-20T04:22:04.818Z,14.17
2023-04-20T04:24:38.273Z,13.10
2023-04-20T04:27:11.073Z,12.80
2023-04-20T04:29:44.699Z,12.70
2023-04-20T04:32:17.370Z,13.43
2023-04-20T04:34:44.485Z,13.07
2023-04-20T04:37:12.292Z,13.30
2023-04-20T04:39:43.835Z,13.37
2023-04-20T04:42:19.135Z,13.23
2023-04-20T04:44:46.993Z,12.00
2023-04-20T04:47:22.174Z,12.83
2023-04-20T04:49:49.505Z,13.20
2023-04-20T04:52:16.214Z,13.20
2023-04-20T04:54:42.757Z,16.00
2023-04-20T04:57:09.317Z,13.23
2023-04-20T04:59:36.154Z,14.53
2023-04-20T05:02:02.898Z,14.47
2023-04-20T05:04:29.572Z,13.37
2023-04-20T05:06:56.479Z,12.80
2023-04-20T05:09:22.992Z,13.57
2023-04-20T05:11:49.560Z,13.77
2023-04-20T05:14:16.065Z,13.43
2023-04-20T05:16:42.832Z,21.27
2023-04-20T05:19:09.453Z,14.77
2023-04-20T05:21:36.220Z,14.23
2023-04-20T05:24:02.759Z,13.87
2023-04-20T05:26:29.273Z,14.70
2023-04-20T05:28:55.770Z,14.63
2023-04-20T05:31:22.338Z,14.43
2023-04-20T05:33:48.886Z,15.40
2023-04-20T05:36:15.456Z,15.17
2023-04-20T05:38:42.034Z,15.63
2023-04-20T05:41:08.554Z,15.03
2023-04-20T05:43:35.086Z,15.10
2023-04-20T05:46:01.694Z,14.83
2023-04-20T05:48:29.987Z,14.53
2023-04-20T05:50:56.736Z,15.67
2023-04-20T05:53:23.335Z,15.80
2023-04-20T05:55:50.176Z,16.30
2023-04-20T05:58:17.046Z,14.73
2023-04-20T06:00:44.509Z,15.10
2023-04-20T06:03:11.356Z,14.03
2023-04-20T06:05:38.097Z,13.83
2023-04-20T06:08:04.912Z,13.77
2023-04-20T06:10:34.238Z,13.30
2023-04-20T06:13:01.329Z,13.83
2023-04-20T06:15:27.844Z,13.87
2023-04-20T06:17:54.520Z,13.90
2023-04-20T06:20:21.377Z,14.57
2023-04-20T06:22:48.040Z,14.73
2023-04-20T06:25:15.630Z,13.93
2023-04-20T06:27:42.530Z,14.80
2023-04-20T06:30:10.018Z,16.00
2023-04-20T06:32:37.834Z,14.60
2023-04-20T06:35:04.987Z,15.57
2023-04-20T06:37:31.533Z,15.63
2023-04-20T06:39:58.023Z,15.33
2023-04-20T06:42:24.571Z,16.13
2023-04-20T06:44:51.192Z,16.23
2023-04-20T06:47:17.949Z,17.20
2023-04-20T06:49:44.570Z,16.53
2023-04-20T06:52:11.214Z,16.67
2023-04-20T06:54:37.714Z,16.23
2023-04-20T06:57:04.345Z,16.57
2023-04-20T06:59:30.868Z,15.13
2023-04-20T07:01:57.380Z,16.50
2023-04-20T07:04:23.988Z,15.57
2023-04-20T07:06:53.817Z,18.20
2023-04-20T07:09:20.992Z,19.23
2023-04-20T07:11:47.553Z,17.10
2023-04-20T07:14:14.439Z,17.13
2023-04-20T07:16:41.083Z,15.63
2023-04-20T07:19:07.702Z,15.17
2023-04-20T07:21:35.598Z,16.23
2023-04-20T07:24:02.262Z,15.87
2023-04-20T07:26:28.917Z,16.17
2023-04-20T07:28:55.495Z,16.07
2023-04-20T07:31:22.064Z,16.77
2023-04-20T07:33:48.621Z,16.77
2023-04-20T07:36:15.146Z,16.60
2023-04-20T07:38:41.700Z,17.27
2023-04-20T07:41:09.017Z,17.50
2023-04-20T07:43:35.576Z,18.07
2023-04-20T07:46:02.252Z,17.90
2023-04-20T07:48:28.882Z,15.83
2023-04-20T07:50:55.494Z,16.53
2023-04-20T07:53:22.020Z,15.77
2023-04-20T07:55:50.668Z,16.03
2023-04-20T07:58:17.655Z,16.57
2023-04-20T08:00:45.667Z,17.20
2023-04-20T08:03:12.294Z,17.00
2023-04-20T08:05:39.375Z,17.50
2023-04-20T08:08:05.852Z,16.43
2023-04-20T08:10:32.672Z,17.20
2023-04-20T08:12:59.376Z,17.37
2023-04-20T08:15:26.013Z,16.47
2023-04-20T08:17:53.105Z,15.97
2023-04-20T08:20:19.692Z,16.60
2023-04-20T08:22:46.203Z,17.37
2023-04-20T08:25:12.693Z,15.83
2023-04-20T08:27:39.399Z,15.70
2023-04-20T08:30:06.623Z,14.60
2023-04-20T08:32:33.445Z,14.03
2023-04-20T08:35:00.009Z,13.73
2023-04-20T08:37:27.025Z,13.57
2023-04-20T08:39:53.515Z,13.70
2023-04-20T08:42:21.141Z,15.33
2023-04-20T08:44:47.689Z,14.77
2023-04-20T08:47:14.382Z,14.80
2023-04-20T08:49:41.376Z,15.07
2023-04-20T08:52:10.849Z,14.67
2023-04-20T08:54:39.975Z,14.03
2023-04-20T08:57:16.223Z,14.37
2023-04-20T08:59:42.751Z,14.20
2023-04-20T09:02:13.005Z,14.90
2023-04-20T09:04:40.851Z,14.00
2023-04-20T09:07:16.454Z,14.27
2023-04-20T09:09:53.173Z,15.00
2023-04-20T09:12:21.619Z,14.83
2023-04-20T09:14:49.296Z,15.07
2023-04-20T09:17:17.639Z,13.90
2023-04-20T09:19:44.839Z,14.83
2023-04-20T09:22:11.738Z,14.50
2023-04-20T09:24:39.122Z,15.53
2023-04-20T09:27:15.602Z,14.77
2023-04-20T09:29:42.224Z,15.73
2023-04-20T09:32:08.904Z,14.50
2023-04-20T09:34:45.155Z,14.83
2023-04-20T09:37:15.003Z,14.87
2023-04-20T09:39:43.022Z,15.70
2023-04-20T09:42:11.827Z,14.30
2023-04-20T09:44:39.078Z,15.23
2023-04-20T09:47:06.116Z,14.30
2023-04-20T09:49:32.637Z,14.73
2023-04-20T09:52:02.146Z,13.93
2023-04-20T09:54:28.949Z,14.87
2023-04-20T09:56:56.904Z,13.93
2023-04-20T09:59:23.981Z,12.83
2023-04-20T10:01:50.866Z,13.47
2023-04-20T10:04:18.259Z,12.97
2023-04-20T10:06:55.423Z,12.60
2023-04-20T10:09:23.199Z,12.40
2023-04-20T10:11:53.979Z,11.90
2023-04-20T10:14:25.113Z,11.23
2023-04-20T10:17:01.892Z,13.23
2023-04-20T10:19:38.901Z,13.87
2023-04-20T10:22:06.008Z,16.20
2023-04-20T10:24:32.633Z,13.27
2023-04-20T10:26:59.220Z,13.90
2023-04-20T10:29:26.222Z,12.60
2023-04-20T10:31:53.451Z,12.90
2023-04-20T10:34:36.063Z,11.53
2023-04-20T10:37:12.517Z,12.30
2023-04-20T10:39:48.400Z,12.73
2023-04-20T10:42:17.416Z,12.00
2023-04-20T10:44:51.305Z,12.53
2023-04-20T10:47:18.470Z,14.47
2023-04-20T10:49:45.249Z,13.77
2023-04-20T10:52:11.756Z,13.23
2023-04-20T10:54:39.071Z,14.77
2023-04-20T10:57:06.730Z,14.10
2023-04-20T10:59:35.122Z,15.70
2023-04-20T11:02:02.055Z,14.33
2023-04-20T11:04:37.250Z,15.73
2023-04-20T11:07:07.989Z,15.63
2023-04-20T11:09:35.000Z,16.40
2023-04-20T11:12:02.502Z,18.70
2023-04-20T11:14:29.442Z,18.10
2023-04-20T11:16:56.259Z,16.97
2023-04-20T11:19:33.507Z,16.10
2023-04-20T11:22:00.813Z,51.67
2023-04-20T11:24:29.066Z,18.40
2023-04-20T11:26:56.240Z,17.33
2023-04-20T11:29:33.538Z,17.87
2023-04-20T11:32:04.764Z,18.30
2023-04-20T11:34:31.579Z,17.67
2023-04-20T11:37:03.629Z,17.13
2023-04-20T11:39:30.425Z,18.17
2023-04-20T11:41:57.294Z,18.90
2023-04-20T11:44:24.595Z,19.00
2023-04-20T11:46:53.257Z,22.27
2023-04-20T11:49:20.969Z,19.60
2023-04-20T11:51:47.777Z,20.77
2023-04-20T11:54:14.444Z,19.90
2023-04-20T11:56:44.933Z,18.23
2023-04-20T11:59:12.035Z,24.43
2023-04-20T12:01:38.630Z,21.83
2023-04-20T12:04:05.602Z,19.27
2023-04-20T12:06:32.650Z,18.57
2023-04-20T12:08:59.484Z,19.30
2023-04-20T12:11:26.057Z,18.90
2023-04-20T12:13:53.649Z,18.67
2023-04-20T12:16:20.554Z,18.23
2023-04-20T12:18:47.274Z,19.13
2023-04-20T12:21:13.745Z,19.57
2023-04-20T12:23:40.674Z,17.60
2023-04-20T12:26:07.204Z,18.97
2023-04-20T12:28:33.680Z,18.30
2023-04-20T12:31:00.595Z,17.87
2023-04-20T12:33:27.161Z,30.67
2023-04-20T12:35:53.778Z,21.17
2023-04-20T12:38:20.291Z,18.47
2023-04-20T12:40:46.875Z,18.00
2023-04-20T12:43:13.379Z,17.93
2023-04-20T12:45:40.147Z,18.13
2023-04-20T12:48:07.073Z,17.37
2023-04-20T12:50:33.760Z,17.43
2023-04-20T12:53:00.406Z,27.60
2023-04-20T12:55:27.000Z,18.43
2023-04-20T12:57:53.552Z,17.40
2023-04-20T13:00:20.158Z,16.80
2023-04-20T13:02:47.043Z,16.40
2023-04-20T13:05:13.800Z,16.73
2023-04-20T13:07:40.524Z,15.63
2023-04-20T13:10:07.289Z,15.43
2023-04-20T13:12:33.792Z,15.43
2023-04-20T13:15:00.325Z,15.73
2023-04-20T13:17:26.972Z,16.30
2023-04-20T13:19:53.522Z,17.17
2023-04-20T13:22:20.034Z,13.97
2023-04-20T13:24:46.591Z,13.87
2023-04-20T13:27:14.161Z,14.63
2023-04-20T13:29:41.410Z,14.00
2023-04-20T13:32:08.005Z,14.60
2023-04-20T13:34:34.616Z,13.60
2023-04-20T13:37:01.194Z,13.87
2023-04-20T13:39:27.951Z,14.80
2023-04-20T13:41:54.514Z,12.37
2023-04-20T13:44:21.415Z,13.17
2023-04-20T13:46:48.212Z,14.20
2023-04-20T13:49:16.805Z,12.47
2023-04-20T13:51:43.374Z,13.20
2023-04-20T13:54:09.920Z,12.83
2023-04-20T13:56:36.438Z,12.77
2023-04-20T13:59:04.063Z,11.77
2023-04-20T14:01:31.550Z,12.50
2023-04-20T14:03:58.651Z,12.63
2023-04-20T14:06:25.500Z,12.87
2023-04-20T14:08:52.080Z,12.87
2023-04-20T14:11:18.645Z,12.37
2023-04-20T14:13:45.622Z,13.03
2023-04-20T14:16:13.829Z,11.63
2023-04-20T14:18:40.863Z,12.67
2023-04-20T14:21:07.386Z,13.60
2023-04-20T14:23:33.927Z,13.13
2023-04-20T14:26:01.004Z,13.43
2023-04-20T14:28:27.631Z,14.50
2023-04-20T14:30:54.681Z,12.97
2023-04-20T14:33:21.329Z,13.20
2023-04-20T14:35:47.838Z,12.10
2023-04-20T14:38:14.363Z,12.53
2023-04-20T14:40:41.469Z,11.87
2023-04-20T14:43:08.024Z,12.00
2023-04-20T14:45:34.532Z,11.93
2023-04-20T14:48:01.086Z,11.87
2023-04-20T14:50:28.266Z,11.73
2023-04-20T14:52:55.199Z,11.50
2023-04-20T14:55:23.529Z,12.85
2023-04-20T14:57:54.580Z,12.40
2023-04-20T15:00:23.553Z,11.83
2023-04-20T15:02:50.881Z,10.77
2023-04-20T15:05:17.644Z,11.27
2023-04-20T15:07:45.920Z,12.00
2023-04-20T15:10:12.596Z,11.37
2023-04-20T15:12:39.187Z,11.23
2023-04-20T15:15:06.022Z,13.73
2023-04-20T15:17:32.529Z,11.63
2023-04-20T15:19:59.093Z,11.53
2023-04-20T15:22:25.591Z,11.13
2023-04-20T15:24:52.126Z,10.67
2023-04-20T15:27:18.668Z,10.63
2023-04-20T15:29:45.262Z,10.63
2023-04-20T15:32:11.920Z,11.27
2023-04-20T15:34:38.582Z,10.80
2023-04-20T15:37:05.112Z,11.07
2023-04-20T15:39:31.712Z,10.90
2023-04-20T15:41:59.208Z,11.67
2023-04-20T15:44:25.931Z,10.97
2023-04-20T15:46:52.497Z,10.77
2023-04-20T15:49:21.962Z,11.50
2023-04-20T15:51:48.585Z,11.40
2023-04-20T15:54:15.656Z,11.50
2023-04-20T15:56:42.273Z,11.10
2023-04-20T15:59:08.803Z,11.20
2023-04-20T16:01:35.508Z,11.93
2023-04-20T16:04:02.305Z,10.73
2023-04-20T16:06:29.020Z,10.50
2023-04-20T16:08:57.255Z,11.07
2023-04-20T16:11:23.894Z,11.47
2023-04-20T16:13:50.432Z,11.00
2023-04-20T16:16:17.017Z,10.00
2023-04-20T16:18:43.600Z,9.53
2023-04-20T16:21:11.269Z,11.00
2023-04-20T16:23:37.858Z,10.70
2023-04-20T16:26:04.381Z,11.27
2023-04-20T16:28:31.407Z,11.40
2023-04-20T16:30:58.322Z,10.97
2023-04-20T16:33:25.452Z,11.57
2023-04-20T16:35:52.057Z,12.20
2023-04-20T16:38:21.596Z,11.53
2023-04-20T16:40:48.110Z,12.57
2023-04-20T16:43:14.660Z,12.17
2023-04-20T16:45:41.472Z,13.97
2023-04-20T16:48:08.342Z,12.83
2023-04-20T16:50:35.496Z,12.30
2023-04-20T16:53:02.022Z,13.73
2023-04-20T16:55:28.617Z,12.90
2023-04-20T16:58:00.208Z,13.93
2023-04-20T17:00:27.583Z,12.93
2023-04-20T17:02:54.403Z,12.83
2023-04-20T17:05:21.219Z,13.63
2023-04-20T17:07:47.994Z,13.43
2023-04-20T17:10:14.579Z,12.13
2023-04-20T17:12:41.781Z,13.30
2023-04-20T17:15:10.596Z,12.33
2023-04-20T17:17:37.545Z,12.40
2023-04-20T17:20:07.098Z,13.27
2023-04-20T17:22:35.352Z,12.77
2023-04-20T17:25:02.051Z,13.33
2023-04-20T17:27:28.550Z,12.67
2023-04-20T17:29:56.078Z,13.10
2023-04-20T17:32:22.754Z,13.17
2023-04-20T17:34:51.372Z,12.73
2023-04-20T17:37:18.172Z,13.00
2023-04-20T17:39:44.724Z,13.30
2023-04-20T17:42:14.299Z,12.73
2023-04-20T17:44:40.922Z,13.70
2023-04-20T17:47:09.481Z,13.60
2023-04-20T17:49:36.609Z,12.63
2023-04-20T17:52:03.274Z,12.20
2023-04-20T17:54:29.859Z,13.13
2023-04-20T17:56:58.045Z,12.63
2023-04-20T17:59:24.545Z,13.43
2023-04-20T18:01:51.144Z,13.37
2023-04-20T18:04:18.210Z,12.80
2023-04-20T18:06:45.164Z,13.60
2023-04-20T18:09:14.071Z,14.03
2023-04-20T18:11:40.736Z,13.27
2023-04-20T18:14:07.263Z,13.17
2023-04-20T18:16:33.753Z,14.20
2023-04-20T18:19:00.344Z,15.37
2023-04-20T18:21:26.928Z,16.93
2023-04-20T18:23:55.450Z,15.00
2023-04-20T18:26:22.134Z,17.97
2023-04-20T18:28:48.937Z,16.53
2023-04-20T18:31:15.607Z,17.20
2023-04-20T18:33:42.101Z,17.20
2023-04-20T18:36:08.726Z,21.47
2023-04-20T18:38:35.356Z,19.47
2023-04-20T18:41:02.489Z,20.87
2023-04-20T18:43:29.283Z,23.33
2023-04-20T18:45:55.820Z,19.87
2023-04-20T18:48:22.284Z,20.37
2023-04-20T18:50:48.994Z,21.87
2023-04-20T18:53:15.799Z,19.33
2023-04-20T18:55:42.330Z,19.93
2023-04-20T18:58:08.821Z,17.10
2023-04-20T19:00:35.636Z,19.27
2023-04-20T19:03:02.330Z,17.83
2023-04-20T19:05:30.188Z,16.20
2023-04-20T19:07:56.729Z,16.67
2023-04-20T19:10:23.507Z,15.97
2023-04-20T19:12:50.221Z,18.13
2023-04-20T19:15:16.830Z,15.87
2023-04-20T19:17:43.370Z,17.57
2023-04-20T19:20:10.212Z,16.70
2023-04-20T19:22:36.859Z,16.83
2023-04-20T19:25:03.493Z,20.20
2023-04-20T19:27:30.914Z,17.50
2023-04-20T19:29:57.522Z,19.77
2023-04-20T19:32:24.277Z,16.63
2023-04-20T19:34:56.580Z,15.87
2023-04-20T19:37:23.648Z,15.33
2023-04-20T19:39:50.264Z,16.60
2023-04-20T19:42:18.527Z,15.90
2023-04-20T19:44:45.272Z,14.93
2023-04-20T19:47:11.860Z,15.27
2023-04-20T19:49:38.370Z,14.17
2023-04-20T19:52:04.870Z,15.10
2023-04-20T19:54:31.594Z,14.37
2023-04-20T19:56:58.145Z,14.90
2023-04-20T19:59:24.643Z,15.87
2023-04-20T20:01:51.249Z,14.67
2023-04-20T20:04:17.906Z,14.93
2023-04-20T20:06:48.452Z,15.00
2023-04-20T20:09:14.973Z,14.70
2023-04-20T20:11:48.023Z,15.37
2023-04-20T20:14:15.441Z,16.63
2023-04-20T20:16:42.090Z,14.83
2023-04-20T20:19:08.993Z,15.27
2023-04-20T20:21:35.504Z,15.20
2023-04-20T20:24:02.040Z,14.97
2023-04-20T20:26:28.755Z,14.90
2023-04-20T20:28:55.469Z,14.77
2023-04-20T20:31:22.061Z,15.70
2023-04-20T20:33:48.629Z,14.77
2023-04-20T20:36:17.670Z,15.30
2023-04-20T20:38:44.344Z,15.10
2023-04-20T20:41:13.647Z,16.83
2023-04-20T20:43:43.001Z,15.00
2023-04-20T20:46:09.811Z,15.03
2023-04-20T20:48:36.425Z,14.00
2023-04-20T20:51:03.028Z,14.53
2023-04-20T20:53:30.044Z,13.87
2023-04-20T20:55:56.687Z,15.00
2023-04-20T20:58:23.189Z,14.40
2023-04-20T21:00:49.786Z,13.33
2023-04-20T21:03:16.511Z,14.10
2023-04-20T21:05:43.258Z,13.13
2023-04-20T21:08:10.112Z,13.07
2023-04-20T21:10:36.615Z,12.43
2023-04-20T21:13:04.162Z,11.40
2023-04-20T21:15:30.743Z,12.70
2023-04-20T21:17:57.536Z,11.97
2023-04-20T21:20:24.831Z,11.93
2023-04-20T21:22:51.403Z,12.10
2023-04-20T21:25:17.918Z,11.10
2023-04-20T21:27:44.486Z,11.20
2023-04-20T21:30:11.269Z,10.93
2023-04-20T21:32:37.946Z,10.57
2023-04-20T21:35:04.572Z,11.90
2023-04-20T21:37:31.096Z,11.53
2023-04-20T21:39:57.633Z,10.63
2023-04-20T21:42:24.243Z,10.00
2023-04-20T21:44:50.876Z,9.50
2023-04-20T21:47:17.376Z,11.00
2023-04-20T21:49:43.965Z,10.00
2023-04-20T21:52:10.486Z,11.03
2023-04-20T21:54:37.711Z,11.70
2023-04-20T21:57:04.266Z,12.53
2023-04-20T21:59:30.862Z,10.70
2023-04-20T22:01:57.532Z,12.47
2023-04-20T22:04:25.833Z,11.10
2023-04-20T22:06:53.587Z,10.97
2023-04-20T22:09:20.935Z,11.50
2023-04-20T22:11:47.982Z,10.40
2023-04-20T22:14:14.838Z,10.83
2023-04-20T22:16:41.904Z,10.60
2023-04-20T22:19:08.591Z,11.17
2023-04-20T22:21:35.285Z,12.10
2023-04-20T22:24:01.970Z,10.93
2023-04-20T22:26:28.558Z,12.17
2023-04-20T22:28:55.164Z,11.17
2023-04-20T22:31:21.727Z,10.83
2023-04-20T22:33:48.338Z,9.97
2023-04-20T22:36:14.876Z,10.17
2023-04-20T22:38:41.440Z,10.50
2023-04-20T22:41:08.025Z,10.43
2023-04-20T22:43:34.596Z,10.40
2023-04-20T22:46:01.138Z,9.83
2023-04-20T22:48:28.318Z,9.50
2023-04-20T22:50:55.342Z,9.43
2023-04-20T22:53:21.841Z,9.37
2023-04-20T22:55:48.413Z,9.77
2023-04-20T22:58:14.933Z,10.70
2023-04-20T23:00:41.480Z,9.60
2023-04-20T23:03:08.199Z,10.60
2023-04-20T23:05:35.363Z,9.43
2023-04-20T23:08:01.866Z,10.87
2023-04-20T23:10:29.514Z,9.10
2023-04-20T23:12:56.160Z,9.30
2023-04-20T23:15:22.709Z,10.40
2023-04-20T23:17:49.286Z,10.07
2023-04-20T23:20:16.163Z,9.57
2023-04-20T23:22:42.761Z,9.50
2023-04-20T23:25:10.969Z,10.17
2023-04-20T23:27:37.503Z,10.07
2023-04-20T23:30:04.147Z,9.20
2023-04-20T23:32:30.836Z,10.07
2023-04-20T23:34:57.458Z,9.67
2023-04-20T23:37:24.112Z,9.67
2023-04-20T23:39:50.662Z,8.80
2023-04-20T23:42:17.163Z,10.50
2023-04-20T23:44:43.746Z,10.63
2023-04-20T23:47:10.385Z,9.90
2023-04-20T23:49:36.909Z,10.33
2023-04-20T23:52:03.448Z,10.13
2023-04-20T23:54:31.777Z,9.70
2023-04-20T23:56:59.691Z,10.70
2023-04-20T23:59:26.277Z,9.70
